Latest Weather Observations for Kalgoorlie-Boulder

IDW60801

Issued at 12:43 pm WST Saturday 22 February 2020 (issued every 10 minutes, with the page automatically refreshed every 10 minutes)

About weather observations | Map of weather stations | Latest weather observations for WA | Other Formats
Station Details ID: 012038 Name: KALGOORLIE-BOULDER AIRPORT Lat: -30.78 Lon: 121.45 Height: 365.3 m
Data from the previous 72 hours. | See also: Recent months at Kalgoorlie-Boulder
Date/Time
WST
Temp
°C
App
Temp
°C
Dew
Point
°C
Rel
Hum
%
Delta-T
°C
Wind Press
QNH
hPa
Press
MSL
hPa
Rain since
9am
mm
Dir  Spd
km/h
Gust
km/h
Spd
kts
Gust
kts
22/12:30pm 30.1 27.3 10.1 29 11.5 NNE 15 20 8 11 1015.4 1013.3 0.0
22/12:00pm 28.7 25.9 9.9 31 10.7 NNE 15 22 8 12 1016.0 1014.0 0.0
22/11:30am 28.6 25.4 9.8 31 10.7 NNE 17 26 9 14 1016.3 1014.3 0.0
22/11:00am 28.4 25.2 10.1 32 10.4 NE 17 30 9 16 1016.1 1014.1 0.0
22/10:30am 28.3 25.3 10.5 33 10.2 ENE 17 24 9 13 1016.2 1014.2 0.0
22/10:00am 26.8 23.3 10.1 35 9.5 ENE 19 28 10 15 1016.4 1014.4 0.0
22/09:30am 25.6 23.1 9.8 37 8.9 ENE 13 22 7 12 1017.0 1015.0 0.0
22/09:00am 24.4 21.6 9.9 40 8.1 ENE 15 20 8 11 1017.0 1015.0 0.0
22/08:30am 23.8 20.8 10.5 43 7.5 E 17 22 9 12 1016.9 1014.9 0.0
22/08:00am 22.9 19.8 10.3 45 7.0 ENE 17 22 9 12 1017.0 1015.0 0.0
22/07:30am 22.8 19.9 10.9 47 6.7 E 17 24 9 13 1016.8 1014.8 0.0
22/07:00am 21.5 17.5 10.3 49 6.2 E 22 26 12 14 1016.9 1014.9 0.0
22/06:30am 21.0 17.4 10.5 51 5.8 E 20 26 11 14 1016.8 1014.8 0.0
22/06:00am 20.5 17.0 10.3 52 5.6 E 19 28 10 15 1016.6 1014.6 0.0
22/05:30am 20.7 17.0 10.2 51 5.8 E 20 30 11 16 1016.4 1014.4 0.0
22/05:00am 21.2 17.1 10.1 49 6.1 E 22 32 12 17 1016.1 1014.1 0.0
22/04:30am 21.8 17.9 9.3 45 6.8 E 20 28 11 15 1016.1 1014.1 0.0
22/04:00am 22.7 18.4 7.7 38 8.0 E 20 30 11 16 1016.0 1014.0 0.0
22/03:30am 23.6 19.2 6.4 33 9.0 E 19 28 10 15 1015.8 1013.7 0.0
22/03:00am 24.1 20.0 6.4 32 9.3 E 17 26 9 14 1015.8 1013.7 0.0
22/02:30am 24.4 20.3 6.2 31 9.5 ENE 17 26 9 14 1016.0 1014.0 0.0
22/02:00am 24.4 20.3 6.2 31 9.5 E 17 24 9 13 1016.0 1014.0 0.0
22/01:30am 24.6 20.8 5.9 30 9.7 E 15 26 8 14 1016.3 1014.3 0.0
22/01:00am 24.8 20.1 6.1 30 9.8 E 20 32 11 17 1016.1 1014.1 0.0
22/12:30am 24.9 20.2 6.1 30 9.8 E 20 30 11 16 1016.6 1014.6 0.0
22/12:00am 25.1 21.1 6.8 31 9.7 E 17 24 9 13 1017.0 1015.0 0.0
 
Date/Time
WST
Temp
°C
App
Temp
°C
Dew
Point
°C
Rel
Hum
%
Delta-T
°C
Wind Press
QNH
hPa
Press
MSL
hPa
Rain since
9am
mm
Dir  Spd
km/h
Gust
km/h
Spd
kts
Gust
kts
21/11:30pm 25.1 21.2 7.3 32 9.5 E 17 22 9 12 1017.1 1015.1 0.0
21/11:00pm 25.2 21.5 7.8 33 9.4 E 17 22 9 12 1017.5 1015.4 0.0
21/10:30pm 25.4 22.2 8.4 34 9.3 E 15 22 8 12 1017.6 1015.5 0.0
21/10:00pm 25.8 21.8 8.3 33 9.6 E 19 26 10 14 1017.5 1015.4 0.0
21/09:30pm 26.3 22.4 8.8 33 9.7 E 19 30 10 16 1017.6 1015.5 0.0
21/09:00pm 26.8 22.7 8.7 32 10.0 ENE 20 30 11 16 1017.5 1015.4 0.0
21/08:30pm 27.1 23.9 8.5 31 10.3 ENE 15 20 8 11 1017.5 1015.4 0.0
21/08:00pm 27.2 23.7 8.6 31 10.3 E 17 20 9 11 1017.1 1015.1 0.0
21/07:30pm 27.4 23.9 8.8 31 10.3 E 17 24 9 13 1016.9 1014.9 0.0
21/07:00pm 27.6 24.6 9.4 32 10.2 ENE 15 22 8 12 1016.5 1014.5 0.0
21/06:30pm 27.9 24.8 8.7 30 10.7 ENE 15 22 8 12 1016.3 1014.3 0.0
21/06:00pm 28.5 25.1 9.2 30 10.9 ENE 17 20 9 11 1015.9 1013.9 0.0
21/05:30pm 28.3 24.9 9.1 30 10.8 ENE 17 22 9 12 1015.9 1013.9 0.0
21/05:00pm 28.6 25.1 8.8 29 11.1 ESE 17 28 9 15 1015.7 1013.6 0.0
21/04:30pm 29.2 25.7 8.8 28 11.4 ESE 17 28 9 15 1015.9 1013.9 0.0
21/04:00pm 28.9 25.1 9.1 29 11.1 ESE 19 24 10 13 1016.1 1014.1 0.0
21/03:30pm 28.1 25.0 8.9 30 10.7 E 15 26 8 14 1016.3 1014.3 0.0
21/03:00pm 28.1 24.9 8.4 29 10.9 E 15 22 8 12 1016.9 1014.9 0.0
21/02:30pm 28.2 24.8 9.0 30 10.8 E 17 28 9 15 1017.3 1015.3 0.0
21/02:00pm 27.6 23.8 9.0 31 10.4 E 19 28 10 15 1017.8 1015.7 0.0
21/01:30pm 27.6 24.6 9.4 32 10.2 E 15 26 8 14 1018.0 1015.9 0.0
21/01:00pm 26.2 23.2 9.1 34 9.5 ESE 15 20 8 11 1018.9 1016.9 0.0
21/12:30pm 25.9 23.2 8.8 34 9.4 ENE 13 19 7 10 1019.4 1017.4 0.0
21/12:00pm 26.3 22.7 10.0 36 9.2 E 19 32 10 17 1019.7 1017.7 0.0
21/11:30am 24.1 20.1 8.9 38 8.3 ESE 20 33 11 18 1020.4 1018.3 0.0
21/11:00am 23.7 20.0 10.0 42 7.6 E 20 28 11 15 1020.7 1018.6 0.0
21/10:30am 22.9 19.3 10.0 44 7.2 E 19 28 10 15 1020.9 1018.9 0.0
21/10:00am 22.1 18.5 9.9 46 6.7 E 19 28 10 15 1021.4 1019.4 0.0
21/09:30am 22.0 18.0 10.5 48 6.4 E 22 32 12 17 1021.6 1019.6 0.0
21/09:00am 21.2 17.5 10.1 49 6.1 E 20 32 11 17 1021.6 1019.6 0.0
21/08:30am 19.9 16.3 10.0 53 5.4 E 19 28 10 15 1021.4 1019.4 0.0
21/08:00am 18.5 14.7 9.8 57 4.7 E 20 30 11 16 1021.5 1019.5 0.0
21/07:30am 17.6 14.0 10.0 61 4.1 E 19 26 10 14 1021.5 1019.5 0.0
21/07:00am 16.4 13.4 9.3 63 3.7 E 15 20 8 11 1021.3 1019.3 0.0
21/06:30am 16.2 12.2 9.2 63 3.7 ESE 20 24 11 13 1021.0 1019.0 0.0
21/06:00am 15.6 11.7 8.8 64 3.5 ESE 19 22 10 12 1020.9 1018.9 0.0
21/05:30am 15.6 12.1 8.6 63 3.6 ESE 17 20 9 11 1020.5 1018.4 0.0
21/05:00am 16.1 12.0 8.6 61 3.9 ESE 20 28 11 15 1020.4 1018.3 0.0
21/04:30am 16.4 12.5 8.6 60 4.1 E 19 26 10 14 1020.3 1018.2 0.0
21/04:00am 16.7 12.9 8.9 60 4.1 ESE 19 22 10 12 1020.1 1018.1 0.0
21/03:30am 17.3 12.9 9.0 58 4.4 ESE 22 30 12 16 1019.7 1017.7 0.0
21/03:00am 17.7 12.6 9.1 57 4.5 ESE 26 32 14 17 1019.6 1017.6 0.0
21/02:30am 18.0 13.2 8.8 55 4.9 ESE 24 32 13 17 1019.4 1017.4 0.0
21/02:00am 18.5 13.3 8.7 53 5.2 ESE 26 32 14 17 1019.6 1017.6 0.0
21/01:30am 19.3 14.0 8.3 49 5.8 ESE 26 32 14 17 1019.3 1017.3 0.0
21/01:00am 20.2 14.2 8.5 47 6.2 ESE 30 43 16 23 1019.2 1017.2 0.0
21/12:30am 21.2 16.4 8.8 45 6.7 E 24 37 13 20 1019.0 1017.0 0.0
21/12:00am 21.4 17.8 8.3 43 7.0 ESE 17 24 9 13 1018.9 1016.9 0.0
 
Date/Time
WST
Temp
°C
App
Temp
°C
Dew
Point
°C
Rel
Hum
%
Delta-T
°C
Wind Press
QNH
hPa
Press
MSL
hPa
Rain since
9am
mm
Dir  Spd
km/h
Gust
km/h
Spd
kts
Gust
kts
20/11:30pm 22.1 18.0 8.6 42 7.3 E 20 30 11 16 1018.7 1016.7 0.0
20/11:00pm 22.5 18.6 8.6 41 7.5 E 19 26 10 14 1018.7 1016.7 0.0
20/10:30pm 23.1 19.1 8.4 39 7.9 ENE 19 26 10 14 1018.8 1016.8 0.0
20/10:00pm 23.5 19.8 8.0 37 8.3 ENE 17 28 9 15 1018.9 1016.9 0.0
20/09:30pm 23.8 20.4 7.8 36 8.6 ENE 15 20 8 11 1018.9 1016.9 0.0
20/09:00pm 24.3 20.5 7.4 34 9.0 ENE 17 26 9 14 1019.0 1017.0 0.0
20/08:30pm 24.6 20.4 7.3 33 9.2 ENE 19 28 10 15 1018.7 1016.7 0.0
20/08:00pm 24.8 21.0 7.4 33 9.3 ENE 17 24 9 13 1018.5 1016.5 0.0
20/07:30pm 25.2 21.3 7.3 32 9.6 ENE 17 24 9 13 1018.3 1016.2 0.0
20/07:00pm 25.4 21.6 7.5 32 9.6 ENE 17 24 9 13 1018.0 1015.9 0.0
20/06:30pm 25.9 22.1 7.5 31 9.9 ENE 17 24 9 13 1017.6 1015.5 0.0
20/06:00pm 26.8 23.1 7.8 30 10.3 ENE 17 24 9 13 1017.2 1015.2 0.0
20/05:30pm 27.1 22.9 7.5 29 10.6 E 19 26 10 14 1017.0 1015.0 0.0
20/05:00pm 27.7 23.7 8.1 29 10.8 E 19 32 10 17 1017.0 1015.0 0.0
20/04:30pm 27.8 24.1 8.1 29 10.8 ENE 17 26 9 14 1017.1 1015.1 0.0
20/04:00pm 27.7 24.5 8.6 30 10.6 ENE 15 26 8 14 1017.1 1015.1 0.0
20/03:30pm 28.1 24.0 7.9 28 11.1 E 19 30 10 16 1017.2 1015.2 0.0
20/03:00pm 27.2 23.4 7.6 29 10.7 E 17 28 9 15 1017.6 1015.5 0.0
20/02:30pm 26.8 22.6 7.3 29 10.5 E 19 28 10 15 1017.9 1015.8 0.0
20/02:00pm 27.0 23.0 8.4 31 10.2 ESE 19 30 10 16 1018.2 1016.1 0.0
20/01:30pm 26.5 22.0 8.5 32 9.9 E 22 30 12 16 1018.4 1016.4 0.0
20/01:00pm 26.2 22.4 9.1 34 9.5 E 19 30 10 16 1018.5 1016.5 0.0
20/12:30pm 25.4 21.3 8.8 35 9.1 ESE 20 28 11 15 1018.7 1016.7 0.0
20/12:00pm 24.8 21.3 8.7 36 8.8 E 17 28 9 15 1018.9 1016.9 0.0
20/11:30am 24.5 21.8 8.9 37 8.6 ENE 13 20 7 11 1019.1 1017.1 0.0
20/11:00am 23.7 20.8 9.7 41 7.7 E 15 20 8 11 1019.2 1017.2 0.0
20/10:30am 22.8 20.2 10.6 46 6.8 ENE 15 22 8 12 1019.6 1017.6 0.0
20/10:00am 22.0 19.8 10.8 49 6.3 E 13 20 7 11 1019.9 1017.9 0.0
20/09:30am 21.1 18.9 10.9 52 5.7 ESE 13 19 7 10 1019.9 1017.9 0.0
20/09:00am 19.8 17.6 10.8 56 5.0 E 13 20 7 11 1020.0 1018.0 0.0
20/08:30am 18.9 16.3 10.7 59 4.5 E 15 24 8 13 1020.0 1018.0 0.0
20/08:00am 18.5 15.5 10.8 61 4.2 E 17 22 9 12 1020.0 1018.0 0.0
20/07:30am 17.9 14.6 10.8 63 3.9 ESE 19 24 10 13 1019.6 1017.6 0.0
20/07:00am 17.6 15.0 10.7 64 3.8 ESE 15 19 8 10 1019.4 1017.4 0.0
20/06:30am 17.1 15.1 10.2 64 3.7 ESE 11 13 6 7 1019.0 1017.0 0.0
20/06:00am 17.0 14.2 10.1 64 3.7 ESE 15 19 8 10 1018.4 1016.4 0.0
20/05:30am 16.8 14.0 10.0 64 3.6 ESE 15 19 8 10 1017.9 1015.8 0.0
20/05:00am 16.7 14.2 9.6 63 3.8 ESE 13 15 7 8 1017.5 1015.4 0.0
20/04:30am 16.8 14.7 9.7 63 3.8 ESE 11 15 6 8 1017.1 1015.1 0.0
20/04:00am 16.7 15.0 9.9 64 3.6 SE 9 11 5 6 1016.8 1014.8 0.0
20/03:30am 16.8 15.2 10.2 65 3.6 SE 9 15 5 8 1016.6 1014.6 0.0
20/03:00am 17.1 15.2 10.5 65 3.6 SE 11 13 6 7 1016.5 1014.5 0.0
20/02:30am 17.6 15.4 10.7 64 3.8 SE 13 15 7 8 1016.4 1014.4 0.0
20/02:00am 18.5 16.5 10.3 59 4.5 SE 11 13 6 7 1016.3 1014.3 0.0
20/01:30am 18.6 17.0 10.2 58 4.6 ESE 9 13 5 7 1016.2 1014.2 0.0
20/01:00am 20.2 18.5 9.7 51 5.7 ENE 9 17 5 9 1016.3 1014.3 0.0
20/12:30am 20.4 18.0 9.9 51 5.7 ENE 13 19 7 10 1016.3 1014.3 0.0
20/12:00am 20.9 18.1 10.1 50 5.9 ENE 15 20 8 11 1016.3 1014.3 0.0
 
Date/Time
WST
Temp
°C
App
Temp
°C
Dew
Point
°C
Rel
Hum
%
Delta-T
°C
Wind Press
QNH
hPa
Press
MSL
hPa
Rain since
9am
mm
Dir  Spd
km/h
Gust
km/h
Spd
kts
Gust
kts
19/11:30pm 21.0 19.4 10.2 50 6.0 NE 9 15 5 8 1016.4 1014.4 0.0
19/11:00pm 20.9 19.5 11.0 53 5.5 NE 9 15 5 8 1016.5 1014.5 0.0
19/10:30pm 20.8 19.5 11.2 54 5.4 NE 9 13 5 7 1016.3 1014.3 0.0
19/10:00pm 21.0 19.9 10.8 52 5.7 NNE 7 11 4 6 1016.2 1014.2 0.0
19/09:30pm 20.9 20.0 10.7 52 5.7 N 6 7 3 4 1016.4 1014.4 0.0
19/09:00pm 22.0 20.5 10.5 48 6.4 NE 9 15 5 8 1016.3 1014.3 0.0
19/08:30pm 22.2 20.3 10.4 47 6.6 ENE 11 15 6 8 1016.4 1014.4 0.0
19/08:00pm 22.5 20.5 10.3 46 6.8 ENE 11 15 6 8 1016.3 1014.3 0.0
19/07:30pm 22.4 20.6 10.9 48 6.5 NE 11 15 6 8 1016.2 1014.2 0.0
19/07:00pm 22.9 21.1 11.0 47 6.7 NE 11 15 6 8 1016.0 1014.0 0.0
19/06:30pm 23.8 21.3 9.8 41 7.8 ENE 13 19 7 10 1015.7 1013.6 0.0
19/06:00pm 24.3 21.0 9.5 39 8.2 NE 17 22 9 12 1015.6 1013.5 0.0
19/05:30pm 24.4 21.7 10.3 41 7.9 ENE 15 22 8 12 1015.5 1013.4 0.0
19/05:00pm 24.8 21.8 10.7 41 8.0 ENE 17 22 9 12 1015.5 1013.4 0.0
19/04:30pm 24.6 21.2 10.5 41 8.0 NE 19 26 10 14 1015.3 1013.2 0.0
19/04:00pm 25.1 22.2 9.8 38 8.5 ENE 15 22 8 12 1015.5 1013.4 0.0
19/03:30pm 25.0 21.9 8.9 36 8.9 E 15 22 8 12 1015.7 1013.6 0.0
19/03:00pm 25.2 21.8 9.1 36 8.9 ENE 17 22 9 12 1015.8 1013.7 0.0
19/02:30pm 24.8 21.4 9.1 37 8.7 E 17 24 9 13 1016.1 1014.1 0.0
19/02:00pm 24.6 21.3 9.7 39 8.3 ENE 17 24 9 13 1016.3 1014.3 0.0
19/01:30pm 24.8 22.0 11.4 43 7.7 ESE 17 22 9 12 1016.7 1014.7 0.0
19/01:00pm 23.3 21.7 11.4 47 6.8 ENE 11 19 6 10 1017.3 1015.3 0.0

Other formats

Comma delimited format used in spreadsheet applications
http://www.bom.gov.au/fwo/IDW60801/IDW60801.94637.axf

JavaScript Object Notation format (JSON) in row-major order
http://www.bom.gov.au/fwo/IDW60801/IDW60801.94637.json

Data quality

Most of these data are generated automatically and are frequently updated. Quality checks on data are not normally performed. It is possible for incorrect values to appear. Refer to information at About Latest Weather Observations and please check the disclaimer before using these data.